Aviation Digital Data Service (ADDS)

Output produced by METARs form (2207 UTC 01 February 2023)
found at http://www.aviationweather.gov/metar/data/
 
KFTY 012153Z 30007KT 10SM OVC025 13/08 A3018 RMK AO2 SLP219 T01330083
KFTY 012109Z 25004KT 10SM BKN023 13/08 A3017 RMK AO2 T01330083
KFTY 011924Z 0119/0218 30006KT P6SM BKN012 
     TEMPO 0120/0122 SCT012 BKN100 
     FM020500 31003KT P6SM -SHRA FEW006 OVC012 
     FM021100 32003KT 5SM SHRA BR OVC006 
     FM021700 VRB03KT 3SM BR OVC003